Highland Heights, Kentucky
Current Conditions -  °F | °C
As of 6:53 AM on Sunday 21 Dec 2014 (Local Time) from KLUK Reporting Station
Haze Haze  
Wind Chill: 24°   Ceiling: Unl
Heat Index: 24°   Visibility: 4mi
Dew Point: 23°   Wind: 3mph
Humidity: 96%   Direction: NA
Pressure: 30.34"   Gusts: NA
Location:  39.0316°N, 84.4619°W
Report Text: KLUK 211153Z VRB03KT 4SM BR FEW021 M04/M05 A3034 RMK AO2 SLP279 I6000 T10441050 11006 21067 51006
Loading
Personal Weather Stations






























Interactive Weather Map New forecast layout! Learn more

10-Day Weather Forecast

Advertisements
Track Severe Weather on mobile